Time;durP1;ratioP1;P1;durP2;ratioP2;P2;SDS_P1;SDS_P2;PMS_P1;PMS_P2;Temp;Humidity;BMP_temperature;BMP_pressure;BME280_temperature;BME280_humidity;BME280_pressure;Samples;Min_cycle;Max_cycle;Signal;HPM_P1;HPM_P2
2021/12/13 00:01:22;;;;;;;4.72;3.03;;;;;;;4.70;63.76;100063.84;5090946;28;20032;-19
2021/12/13 00:04:09;;;;;;;5.55;3.33;;;;;;;4.92;64.25;100082.44;5084291;28;20040;-20
2021/12/13 00:06:38;;;;;;;6.67;3.60;;;;;;;5.00;63.79;100084.97;5087446;28;20047;-20
2021/12/13 00:09:15;;;;;;;5.68;3.03;;;;;;;4.88;64.36;100065.28;5079356;28;20270;-20
2021/12/13 00:11:43;;;;;;;5.05;3.38;;;;;;;4.82;64.44;100070.31;5060175;28;20035;-20
2021/12/13 00:14:19;;;;;;;6.28;3.53;;;;;;;4.72;64.50;100067.13;5066347;28;20040;-21
2021/12/13 00:16:56;;;;;;;8.68;4.00;;;;;;;4.83;64.86;100077.22;5090435;28;20035;-20
2021/12/13 00:19:23;;;;;;;7.07;3.83;;;;;;;4.69;64.86;100071.94;5090858;28;20396;-19
2021/12/13 00:21:52;;;;;;;6.35;3.35;;;;;;;4.89;64.96;100085.44;5090515;28;20031;-20
2021/12/13 00:24:24;;;;;;;7.07;3.63;;;;;;;4.86;65.12;100097.19;5055803;28;20039;-20
2021/12/13 00:26:50;;;;;;;7.40;4.47;;;;;;;4.91;63.90;100075.53;5090798;28;20028;-20
2021/12/13 00:29:19;;;;;;;7.20;3.70;;;;;;;4.80;64.92;100090.81;5072603;28;20046;-20
2021/12/13 00:32:05;;;;;;;9.35;5.03;;;;;;;5.03;64.35;100084.63;5090499;28;20051;-20
2021/12/13 00:34:38;;;;;;;5.93;3.60;;;;;;;4.85;65.49;100092.09;5089959;28;20058;-20
2021/12/13 00:37:35;;;;;;;6.80;3.50;;;;;;;5.23;64.72;100096.31;5090090;28;20044;-20
2021/12/13 00:40:08;;;;;;;5.97;3.13;;;;;;;4.97;65.48;100096.75;5089576;28;20527;-20
2021/12/13 00:42:42;;;;;;;8.10;3.63;;;;;;;4.93;65.61;100095.47;5090015;28;20036;-20
2021/12/13 00:45:09;;;;;;;6.53;3.13;;;;;;;4.97;65.40;100080.06;5056659;28;20032;-20
2021/12/13 00:47:36;;;;;;;7.50;4.20;;;;;;;4.87;66.40;100064.47;5090663;28;20043;-20
2021/12/13 00:50:11;;;;;;;6.15;3.50;;;;;;;4.91;66.99;100088.72;5090175;28;20024;-19
2021/12/13 00:52:37;;;;;;;5.75;3.40;;;;;;;4.83;65.09;100064.03;5089841;28;20032;-20
2021/12/13 00:55:16;;;;;;;6.63;3.70;;;;;;;4.83;66.00;100087.78;5072178;28;20031;-20
2021/12/13 00:57:47;;;;;;;7.07;4.15;;;;;;;5.13;65.66;100087.81;5072106;28;20031;-20
2021/12/13 01:00:14;;;;;;;5.90;3.70;;;;;;;5.14;65.03;100065.66;5072166;28;20032;-20
2021/12/13 01:02:58;;;;;;;7.43;3.58;;;;;;;5.28;66.42;100092.28;5089615;28;20102;-20
2021/12/13 01:05:45;;;;;;;7.15;4.10;;;;;;;5.27;66.22;100093.28;5089836;28;20392;-20
2021/12/13 01:08:14;;;;;;;5.85;3.58;;;;;;;5.14;65.00;100086.00;5089936;28;20519;-20
2021/12/13 01:11:14;;;;;;;6.25;3.80;;;;;;;5.09;65.34;100089.19;5089615;28;20036;-20
2021/12/13 01:14:02;;;;;;;7.00;4.22;;;;;;;5.10;65.41;100092.66;5089790;28;20020;-20
2021/12/13 01:16:48;;;;;;;7.10;3.80;;;;;;;5.20;65.59;100101.94;5057646;28;20036;-20
2021/12/13 01:19:48;;;;;;;6.30;3.90;;;;;;;5.35;64.97;100098.47;5089576;28;20096;-20
2021/12/13 01:22:51;;;;;;;6.32;3.83;;;;;;;5.46;64.18;100100.66;5076630;28;20832;-20
2021/12/13 01:25:42;;;;;;;5.95;3.45;;;;;;;5.38;64.71;100100.75;5089583;28;20118;-20
2021/12/13 01:28:27;;;;;;;7.25;4.20;;;;;;;5.66;64.52;100085.03;5089402;28;20060;-20
2021/12/13 01:31:00;;;;;;;6.95;4.07;;;;;;;5.49;64.06;100094.97;5089018;28;20028;-20
2021/12/13 01:33:26;;;;;;;6.68;3.38;;;;;;;5.29;64.32;100093.91;5089483;28;20060;-19
2021/12/13 01:35:56;;;;;;;6.57;3.80;;;;;;;5.24;64.19;100090.00;5070916;28;20044;-21
2021/12/13 01:38:32;;;;;;;7.35;3.92;;;;;;;5.32;65.25;100088.28;5089546;28;20058;-21
2021/12/13 01:40:57;;;;;;;5.28;3.00;;;;;;;5.02;64.26;100090.91;5089367;28;20110;-20
2021/12/13 01:43:26;;;;;;;6.70;3.83;;;;;;;5.18;65.13;100076.69;5089135;28;20513;-20
2021/12/13 01:45:52;;;;;;;6.00;3.42;;;;;;;4.97;64.87;100074.78;5089157;28;20030;-20
2021/12/13 01:48:21;;;;;;;6.15;3.45;;;;;;;4.76;65.29;100068.41;5089259;28;20092;-20
2021/12/13 01:50:51;;;;;;;6.75;3.67;;;;;;;4.91;65.90;100070.22;5088787;28;20558;-20
2021/12/13 01:53:19;;;;;;;6.53;3.15;;;;;;;4.88;65.49;100060.00;5089216;28;20038;-20
2021/12/13 01:55:47;;;;;;;4.30;2.80;;;;;;;4.72;63.40;100056.56;5088965;28;20036;-19
2021/12/13 02:03:50;;;;;;;5.90;3.47;;;;;;;4.76;64.76;100076.31;5089224;28;20065;-19
2021/12/13 02:06:28;;;;;;;5.57;3.25;;;;;;;4.83;64.20;100063.22;5089318;28;20035;-19
2021/12/13 02:08:58;;;;;;;5.65;3.08;;;;;;;4.67;64.86;100077.41;5070768;28;20052;-20
2021/12/13 02:11:24;;;;;;;5.03;3.13;;;;;;;4.69;66.36;100083.31;5088889;28;20028;-20
2021/12/13 02:14:05;;;;;;;6.28;3.58;;;;;;;4.70;65.26;100063.00;5089142;28;20040;-20
2021/12/13 02:19:23;;;;;;;6.70;3.67;;;;;;;4.90;65.01;100073.88;5089008;28;20035;-19
2021/12/13 02:21:50;;;;;;;6.95;3.67;;;;;;;4.77;64.51;100080.59;5088487;28;20027;-20
2021/12/13 02:24:15;;;;;;;6.22;3.55;;;;;;;4.68;65.37;100081.69;5070645;28;20028;-20
2021/12/13 02:26:46;;;;;;;6.15;3.55;;;;;;;4.78;65.29;100061.13;5088139;28;20047;-20
2021/12/13 02:29:23;;;;;;;4.85;3.10;;;;;;;4.61;64.74;100055.16;5088438;28;20067;-20
2021/12/13 02:31:48;;;;;;;5.07;3.10;;;;;;;4.60;65.46;100065.91;5070876;28;20574;-19
2021/12/13 02:34:15;;;;;;;5.75;3.53;;;;;;;4.46;66.15;100056.97;5088454;28;20036;-20
2021/12/13 02:36:44;;;;;;;6.13;3.67;;;;;;;4.73;65.69;100071.38;5087857;28;20109;-20
2021/12/13 02:39:10;;;;;;;;;;;;;;;4.92;65.01;100087.72;5088478;28;20032;-19
2021/12/13 02:41:37;;;;;;;5.40;3.03;;;;;;;4.65;65.13;100066.19;5087676;28;19928;-19
2021/12/13 02:44:14;;;;;;;5.63;3.33;;;;;;;4.82;64.69;100085.34;5087972;28;20036;-20
2021/12/13 02:46:40;;;;;;;6.15;3.70;;;;;;;4.54;65.57;100079.84;5087840;28;20085;-20
2021/12/13 02:49:08;;;;;;;5.78;3.50;;;;;;;4.74;65.18;100070.41;5069799;28;20023;-19
2021/12/13 02:51:39;;;;;;;5.68;3.08;;;;;;;4.78;65.09;100079.59;5087954;28;20035;-21
2021/12/13 02:54:11;;;;;;;5.15;3.15;;;;;;;4.92;64.57;100099.09;5087666;28;20067;-20
2021/12/13 02:56:42;;;;;;;5.43;3.40;;;;;;;4.78;65.43;100076.97;5087592;28;20036;-20
2021/12/13 02:59:08;;;;;;;4.90;3.05;;;;;;;4.93;63.75;100099.94;5087519;28;20028;-20
2021/12/13 03:01:40;;;;;;;6.10;3.72;;;;;;;5.23;64.25;100106.88;5087930;28;20040;-20
2021/12/13 03:04:10;;;;;;;6.25;3.97;;;;;;;5.13;63.88;100108.97;5088192;28;20072;-19
2021/12/13 03:06:39;;;;;;;6.13;3.10;;;;;;;4.83;64.35;100110.75;5087401;28;20043;-20
2021/12/13 03:09:08;;;;;;;5.97;3.30;;;;;;;4.78;64.77;100113.97;5088033;28;20032;-20
2021/12/13 03:11:34;;;;;;;6.55;3.58;;;;;;;5.06;64.56;100117.81;5087599;28;20064;-20
2021/12/13 03:14:04;;;;;;;5.43;3.22;;;;;;;5.28;62.62;100121.38;5087891;28;20073;-20
2021/12/13 03:16:34;;;;;;;6.10;3.03;;;;;;;5.10;64.64;100117.25;5087359;28;20506;-20
2021/12/13 03:19:08;;;;;;;5.55;3.42;;;;;;;5.19;63.48;100118.81;5069129;28;20094;-20
2021/12/13 03:21:43;;;;;;;6.10;3.30;;;;;;;5.29;63.25;100120.34;5073973;28;20032;-20
2021/12/13 03:24:21;;;;;;;5.32;3.45;;;;;;;4.98;63.75;100101.00;5091802;28;20071;-20
2021/12/13 03:26:50;;;;;;;5.25;3.10;;;;;;;4.89;65.38;100109.22;5074050;28;20384;-20
2021/12/13 03:29:41;;;;;;;4.70;3.20;;;;;;;4.77;64.57;100106.19;5091454;28;20403;-21
2021/12/13 03:32:12;;;;;;;5.82;3.25;;;;;;;4.70;65.54;100100.81;5077825;28;20503;-19
2021/12/13 03:34:39;;;;;;;5.03;2.65;;;;;;;4.79;64.28;100091.81;5091208;28;20036;-20
2021/12/13 03:37:11;;;;;;;6.05;3.20;;;;;;;4.82;64.38;100086.19;5091646;28;20059;-21
2021/12/13 03:39:41;;;;;;;5.05;3.17;;;;;;;5.06;64.51;100104.59;5091506;28;20131;-19
2021/12/13 03:42:38;;;;;;;5.30;3.22;;;;;;;5.08;64.26;100107.88;5091325;28;20089;-20
2021/12/13 03:45:26;;;;;;;5.90;2.95;;;;;;;4.59;64.81;100098.59;5055952;28;20047;-20
2021/12/13 03:47:55;;;;;;;5.03;3.00;;;;;;;4.60;64.91;100119.56;5090836;28;20040;-21
2021/12/13 03:50:24;;;;;;;4.53;2.63;;;;;;;4.39;65.28;100099.13;5072846;28;20872;-20
2021/12/13 03:52:52;;;;;;;5.13;3.08;;;;;;;4.44;66.34;100095.94;5091300;28;20031;-21
2021/12/13 03:55:19;;;;;;;6.55;3.00;;;;;;;4.65;66.31;100108.44;5073172;28;20111;-20
2021/12/13 03:57:51;;;;;;;5.05;2.78;;;;;;;4.50;65.35;100084.66;5090924;28;20774;-22
2021/12/13 04:00:18;;;;;;;4.57;2.72;;;;;;;4.49;65.58;100105.94;5091070;28;20032;-20
2021/12/13 04:02:44;;;;;;;4.63;2.83;;;;;;;4.65;66.22;100124.31;5090686;28;20390;-19
2021/12/13 04:05:16;;;;;;;5.55;2.97;;;;;;;4.62;65.47;100114.09;5090761;28;20122;-20
2021/12/13 04:07:44;;;;;;;5.07;2.85;;;;;;;4.47;65.19;100105.31;5090870;28;20510;-20
2021/12/13 04:10:28;;;;;;;5.38;2.88;;;;;;;4.54;65.10;100106.25;5090752;28;20105;-20
2021/12/13 04:12:56;;;;;;;5.53;3.10;;;;;;;4.54;65.77;100107.06;5090853;28;20028;-20
2021/12/13 04:16:15;;;;;;;4.75;3.00;;;;;;;4.60;66.49;100105.53;5090519;28;20034;-20
2021/12/13 04:21:13;;;;;;;5.28;3.00;;;;;;;4.68;65.84;100097.53;5089319;28;20104;-20
2021/12/13 04:23:39;;;;;;;5.28;2.95;;;;;;;4.85;64.82;100114.03;5090324;28;20500;-21
2021/12/13 04:26:06;;;;;;;6.15;3.30;;;;;;;4.89;66.59;100127.72;5090615;28;20039;-20
2021/12/13 04:28:38;;;;;;;5.63;3.20;;;;;;;4.92;65.57;100124.72;5090504;28;20020;-21
2021/12/13 04:31:06;;;;;;;4.68;2.92;;;;;;;4.86;65.58;100128.06;5089545;28;20032;-20
2021/12/13 04:33:37;;;;;;;5.40;3.25;;;;;;;4.76;65.12;100123.03;5090453;28;20474;-20
2021/12/13 04:36:09;;;;;;;4.55;2.83;;;;;;;4.61;65.64;100130.94;5090580;28;20137;-20
2021/12/13 04:38:50;;;;;;;5.78;3.47;;;;;;;4.63;66.56;100121.00;5090030;28;20047;-19
2021/12/13 04:41:34;;;;;;;5.20;3.30;;;;;;;4.67;66.19;100140.78;5090059;28;20074;-19
2021/12/13 04:44:12;;;;;;;5.00;3.22;;;;;;;4.56;65.82;100138.59;5090312;28;20039;-20
2021/12/13 04:46:39;;;;;;;5.50;3.08;;;;;;;4.36;66.08;100107.38;5071733;28;20046;-20
2021/12/13 04:49:12;;;;;;;4.63;2.80;;;;;;;4.47;65.96;100121.16;5089935;28;20028;-20
2021/12/13 04:51:48;;;;;;;5.45;3.20;;;;;;;4.59;66.56;100122.38;5090097;28;20093;-20
2021/12/13 04:54:14;;;;;;;4.80;3.05;;;;;;;4.75;66.34;100138.06;5072097;28;20028;-20
2021/12/13 04:56:40;;;;;;;4.88;3.00;;;;;;;4.64;65.10;100114.75;5089738;28;20028;-19
2021/12/13 04:59:06;;;;;;;5.35;2.88;;;;;;;4.66;65.73;100135.69;5089800;28;20547;-20
2021/12/13 05:01:31;;;;;;;5.53;3.30;;;;;;;4.56;66.16;100114.81;5089761;28;20070;-19
2021/12/13 05:04:00;;;;;;;5.15;2.60;;;;;;;4.40;67.22;100127.16;5071973;28;20035;-20
2021/12/13 05:06:31;;;;;;;6.15;3.45;;;;;;;4.43;66.62;100131.25;5089514;28;20059;-20
2021/12/13 05:08:58;;;;;;;7.50;3.55;;;;;;;4.41;66.06;100117.41;5090016;28;20592;-20
2021/12/13 05:11:28;;;;;;;5.38;2.88;;;;;;;4.46;65.35;100119.53;5071468;28;20073;-20
2021/12/13 05:13:55;;;;;;;5.70;2.75;;;;;;;4.56;66.09;100128.84;5089931;28;20043;-19
2021/12/13 05:16:31;;;;;;;5.90;3.00;;;;;;;4.40;66.36;100116.59;5089387;28;20024;-19
2021/12/13 05:18:57;;;;;;;3.95;2.67;;;;;;;4.45;66.76;100109.94;5089337;28;20039;-21
2021/12/13 05:21:34;;;;;;;4.57;3.08;;;;;;;4.51;66.76;100119.81;5089892;28;20028;-20
2021/12/13 05:24:02;;;;;;;5.07;3.03;;;;;;;4.54;66.12;100132.66;5089282;28;20024;-20
2021/12/13 05:26:31;;;;;;;4.25;2.53;;;;;;;4.58;65.04;100126.84;5089095;28;20110;-19
2021/12/13 05:28:57;;;;;;;6.45;3.20;;;;;;;4.45;66.87;100136.34;5089243;28;20147;-20
2021/12/13 05:31:23;;;;;;;4.72;2.67;;;;;;;4.74;66.34;100139.09;5089151;28;20119;-20
2021/12/13 05:33:51;;;;;;;4.60;2.45;;;;;;;4.34;67.18;100133.13;5089311;28;20035;-19
2021/12/13 05:36:22;;;;;;;4.90;3.08;;;;;;;4.57;67.12;100153.44;5088979;28;20059;-20
2021/12/13 05:38:50;;;;;;;6.05;2.80;;;;;;;4.42;66.63;100134.91;5089030;28;20032;-19
2021/12/13 05:41:20;;;;;;;5.13;2.60;;;;;;;4.50;65.86;100147.22;5089040;28;20050;-19
2021/12/13 05:43:50;;;;;;;4.95;2.70;;;;;;;4.42;66.17;100142.81;5088737;28;20743;-20
2021/12/13 05:46:23;;;;;;;5.30;2.72;;;;;;;4.52;66.49;100142.59;5089005;28;20436;-20
2021/12/13 05:48:52;;;;;;;4.70;2.92;;;;;;;4.38;66.65;100139.69;5088660;28;20035;-20
2021/12/13 05:51:19;;;;;;;4.97;3.10;;;;;;;4.58;66.11;100152.44;5088847;28;20036;-20
2021/12/13 05:53:45;;;;;;;5.90;2.72;;;;;;;4.37;66.46;100132.78;5088885;28;20032;-20
2021/12/13 05:56:16;;;;;;;5.47;2.92;;;;;;;4.39;66.89;100157.22;5070398;28;20028;-20
2021/12/13 05:58:48;;;;;;;6.07;3.15;;;;;;;4.15;67.38;100149.44;5088637;28;20497;-20
2021/12/13 06:01:33;;;;;;;5.30;2.95;;;;;;;4.40;66.47;100156.19;5088742;28;20035;-19
2021/12/13 06:04:08;;;;;;;4.97;2.90;;;;;;;4.48;67.45;100150.03;5056792;28;20067;-19
2021/12/13 06:06:43;;;;;;;6.00;2.97;;;;;;;4.51;66.67;100151.50;5088402;28;20075;-19
2021/12/13 06:09:08;;;;;;;5.60;3.33;;;;;;;4.37;67.56;100138.06;5071869;28;20028;-19
2021/12/13 06:11:34;;;;;;;5.63;2.97;;;;;;;4.23;67.56;100159.97;5088648;28;20085;-19
2021/12/13 06:14:05;;;;;;;5.40;2.97;;;;;;;4.14;68.71;100150.44;5088588;28;20115;-20
2021/12/13 06:16:55;;;;;;;4.32;2.67;;;;;;;4.16;68.61;100156.34;5088305;28;20085;-19
2021/12/13 06:19:27;;;;;;;5.13;3.13;;;;;;;4.18;68.67;100149.09;5070144;28;20507;-20
2021/12/13 06:22:14;;;;;;;5.13;2.88;;;;;;;4.31;67.81;100174.91;5088346;28;20034;-19
2021/12/13 06:24:42;;;;;;;6.35;3.13;;;;;;;4.13;68.52;100156.72;5088137;28;20024;-20
2021/12/13 06:27:15;;;;;;;5.18;3.17;;;;;;;4.11;69.07;100156.88;5088268;28;20024;-20
2021/12/13 06:29:53;;;;;;;5.93;3.55;;;;;;;4.22;68.52;100180.22;5087995;28;20035;-20
2021/12/13 06:32:25;;;;;;;6.47;3.63;;;;;;;4.16;68.27;100193.31;5088222;28;20020;-20
2021/12/13 06:34:50;;;;;;;6.70;3.90;;;;;;;4.20;69.19;100184.03;5088253;28;20036;-19
2021/12/13 06:37:25;;;;;;;7.93;4.60;;;;;;;4.25;68.65;100194.91;5088297;28;20044;-19
2021/12/13 06:39:51;;;;;;;9.23;4.80;;;;;;;3.97;69.66;100211.22;5088362;28;20074;-19
2021/12/13 06:42:16;;;;;;;7.57;3.78;;;;;;;3.99;69.04;100209.22;5087977;28;20043;-20
2021/12/13 06:44:45;;;;;;;7.35;4.85;;;;;;;3.77;71.38;100210.00;5087960;28;20035;-20
2021/12/13 06:47:10;;;;;;;;;;;;;;;3.55;72.25;100217.63;5088421;28;20038;-20
2021/12/13 06:49:44;;;;;;;6.70;3.97;;;;;;;3.36;74.31;100210.94;5087882;28;19915;-21
2021/12/13 06:52:13;;;;;;;8.75;4.75;;;;;;;3.33;74.53;100213.91;5088117;28;20024;-19
2021/12/13 06:54:44;;;;;;;;;;;;;;;3.46;75.79;100231.84;5087388;28;20036;-19
2021/12/13 06:57:22;;;;;;;19.10;7.10;;;;;;;3.22;75.73;100217.69;5088028;28;20002;-20
2021/12/13 06:59:59;;;;;;;8.13;5.13;;;;;;;3.18;76.50;100234.84;5088199;28;20092;-20
2021/12/13 07:02:48;;;;;;;18.35;10.82;;;;;;;3.97;82.70;100221.78;5087614;28;20097;-20
2021/12/13 07:05:27;;;;;;;15.18;6.80;;;;;;;3.96;76.55;100243.91;5076740;28;20040;-21
2021/12/13 07:07:57;;;;;;;13.95;7.15;;;;;;;3.53;76.41;100251.25;5088013;28;20103;-20
2021/12/13 07:10:26;;;;;;;21.38;9.85;;;;;;;4.37;73.96;100262.19;5087849;28;20035;-20
2021/12/13 07:12:55;;;;;;;28.70;12.10;;;;;;;5.56;69.93;100244.03;5087997;28;20505;-20
2021/12/13 07:15:41;;;;;;;;;;;;;;;4.66;73.75;100278.31;5088123;28;20031;-19
2021/12/13 07:18:13;;;;;;;21.00;9.38;;;;;;;3.92;76.36;100270.78;5087872;28;19918;-19
2021/12/13 07:20:50;;;;;;;17.88;8.05;;;;;;;3.51;79.25;100247.97;5087723;28;20085;-20
2021/12/13 07:23:16;;;;;;;21.23;10.80;;;;;;;3.62;78.60;100249.44;5087896;28;20032;-19
2021/12/13 07:25:42;;;;;;;33.00;14.70;;;;;;;3.83;80.94;100272.63;5069616;28;20039;-20
2021/12/13 07:28:08;;;;;;;25.70;11.40;;;;;;;3.61;80.85;100258.34;5087677;28;20410;-20
2021/12/13 07:30:33;;;;;;;30.48;14.35;;;;;;;3.41;83.32;100268.41;5087561;28;20028;-20
2021/12/13 07:33:03;;;;;;;59.22;17.65;;;;;;;3.26;84.01;100275.38;5087729;28;20447;-21
2021/12/13 07:35:31;;;;;;;48.92;17.17;;;;;;;3.28;85.13;100268.13;5087396;28;20056;-20
2021/12/13 07:37:58;;;;;;;36.55;12.27;;;;;;;3.49;84.54;100281.59;5087372;28;20383;-20
2021/12/13 07:40:47;;;;;;;27.90;14.32;;;;;;;3.94;86.11;100285.47;5087277;28;20042;-23
2021/12/13 07:43:16;;;;;;;23.33;10.70;;;;;;;3.66;84.18;100278.91;5087641;28;20111;-20
2021/12/13 07:46:02;;;;;;;10.88;6.95;;;;;;;3.22;86.39;100282.78;5069024;28;20032;-20
2021/12/13 07:48:34;;;;;;;26.45;13.70;;;;;;;3.61;85.70;100298.69;5087185;28;20042;-20
2021/12/13 07:50:59;;;;;;;20.13;11.73;;;;;;;4.18;84.30;100295.09;5087411;28;20026;-20
2021/12/13 07:53:27;;;;;;;15.93;8.88;;;;;;;4.31;82.72;100297.19;5087584;28;20032;-20
2021/12/13 07:55:53;;;;;;;18.00;9.95;;;;;;;3.85;84.32;100291.75;5087707;28;20040;-20
2021/12/13 07:58:52;;;;;;;13.07;8.20;;;;;;;3.76;84.21;100304.13;5087315;28;20059;-19
2021/12/13 08:01:17;;;;;;;14.52;8.75;;;;;;;3.92;84.51;100311.16;5086865;28;20136;-20
2021/12/13 08:04:10;;;;;;;19.17;10.77;;;;;;;4.55;83.18;100303.31;5087387;28;20551;-19
2021/12/13 08:06:42;;;;;;;15.75;8.88;;;;;;;4.61;81.62;100307.91;5086454;28;20047;-21
2021/12/13 08:09:12;;;;;;;16.63;9.45;;;;;;;4.75;82.53;100314.28;5091302;28;20039;-20
2021/12/13 08:11:43;;;;;;;15.48;9.07;;;;;;;4.96;80.51;100321.56;5090905;28;20064;-20
2021/12/13 08:14:09;;;;;;;13.00;8.30;;;;;;;5.00;81.47;100322.84;5090804;28;20035;-20
2021/12/13 08:16:40;;;;;;;12.40;7.50;;;;;;;4.00;81.82;100327.00;5072552;28;20024;-20
2021/12/13 08:19:25;;;;;;;17.63;9.35;;;;;;;3.83;84.41;100312.19;5090853;28;20081;-20
2021/12/13 08:21:55;;;;;;;41.20;19.63;;;;;;;3.74;85.61;100310.56;5090782;28;20032;-21
2021/12/13 08:24:41;;;;;;;20.58;9.85;;;;;;;4.22;86.59;100308.75;5090559;28;20106;-20
2021/12/13 08:27:16;;;;;;;14.95;7.43;;;;;;;3.94;84.17;100321.56;5090893;28;20034;-20
2021/12/13 08:29:42;;;;;;;22.85;10.57;;;;;;;3.77;84.68;100326.06;5090890;28;20028;-20
2021/12/13 08:32:14;;;;;;;11.45;6.65;;;;;;;3.41;85.91;100321.16;5090944;28;20036;-21
2021/12/13 08:34:47;;;;;;;25.80;14.02;;;;;;;3.82;88.32;100319.28;5090287;28;20035;-21
2021/12/13 08:37:35;;;;;;;23.63;11.57;;;;;;;4.72;84.19;100328.66;5090661;28;20052;-20
2021/12/13 08:40:22;;;;;;;12.00;7.38;;;;;;;3.49;84.72;100305.31;5090412;28;20026;-20
2021/12/13 08:42:48;;;;;;;26.10;14.60;;;;;;;3.82;86.88;100308.75;5090276;28;20031;-20
2021/12/13 08:45:24;;;;;;;17.92;11.02;;;;;;;3.46;86.10;100313.56;5090269;28;20526;-20
2021/12/13 08:47:57;;;;;;;18.27;10.18;;;;;;;3.13;87.93;100323.31;5090373;28;20031;-20
2021/12/13 08:50:33;;;;;;;13.30;8.85;;;;;;;2.90;89.07;100328.38;5090439;28;20566;-20
2021/12/13 08:53:02;;;;;;;16.33;9.35;;;;;;;2.81;90.67;100324.91;5090651;28;20036;-20
2021/12/13 08:55:33;;;;;;;17.70;8.80;;;;;;;3.15;90.49;100331.88;5089943;28;20036;-19
2021/12/13 08:58:12;;;;;;;12.35;7.50;;;;;;;3.18;88.88;100313.91;5090065;28;20071;-20
2021/12/13 09:00:45;;;;;;;12.82;7.03;;;;;;;3.24;89.08;100324.78;5090000;28;20127;-20
2021/12/13 09:03:15;;;;;;;12.23;7.78;;;;;;;3.13;90.00;100325.94;5090417;28;20034;-20
2021/12/13 09:06:18;;;;;;;15.20;8.93;;;;;;;3.10;90.55;100321.81;5090028;28;20028;-20
2021/12/13 09:08:49;;;;;;;14.68;8.73;;;;;;;3.34;89.82;100325.44;4999330;28;20907;-20
2021/12/13 09:11:35;;;;;;;13.73;8.88;;;;;;;3.30;89.98;100329.41;5072115;28;20130;-20
2021/12/13 09:14:16;;;;;;;13.45;7.90;;;;;;;3.18;90.49;100337.63;5090024;28;20031;-20
2021/12/13 09:17:10;;;;;;;13.00;7.97;;;;;;;3.13;90.07;100324.13;5089600;28;20028;-20
2021/12/13 09:19:42;;;;;;;13.27;7.95;;;;;;;3.20;89.77;100325.09;5088689;28;20044;-20
2021/12/13 09:22:09;;;;;;;15.80;8.68;;;;;;;3.16;89.30;100313.25;5089665;28;20035;-21
2021/12/13 09:24:40;;;;;;;14.73;8.50;;;;;;;3.22;89.63;100331.03;5089696;28;20640;-20
2021/12/13 09:27:25;;;;;;;13.82;8.20;;;;;;;2.96;89.46;100301.38;5089919;28;20028;-22
2021/12/13 09:29:56;;;;;;;13.32;9.20;;;;;;;3.11;90.48;100320.84;5089663;28;20081;-20
2021/12/13 09:32:24;;;;;;;14.73;7.70;;;;;;;2.98;89.94;100297.63;5089634;28;20028;-20
2021/12/13 09:34:53;;;;;;;13.70;7.60;;;;;;;3.12;90.80;100317.19;5089331;28;20079;-20
2021/12/13 09:37:18;;;;;;;14.63;8.27;;;;;;;3.32;90.18;100311.59;5070952;28;20062;-20
2021/12/13 09:39:45;;;;;;;12.35;7.35;;;;;;;3.21;88.86;100316.22;5089878;28;20032;-21
2021/12/13 09:42:13;;;;;;;15.18;8.55;;;;;;;3.14;90.27;100283.59;5089266;28;20032;-20
2021/12/13 09:44:55;;;;;;;13.77;8.30;;;;;;;3.35;89.55;100311.25;5088954;28;20024;-20
2021/12/13 09:47:24;;;;;;;14.88;8.63;;;;;;;3.28;90.14;100294.47;5089520;28;20051;-20
2021/12/13 09:49:55;;;;;;;14.52;8.45;;;;;;;3.41;90.49;100311.44;5089266;28;20028;-20
2021/12/13 09:52:28;;;;;;;16.02;9.13;;;;;;;3.33;89.52;100314.09;5089423;28;20039;-20
2021/12/13 09:54:58;;;;;;;16.15;9.98;;;;;;;3.07;90.73;100311.59;5088930;28;20027;-20
2021/12/13 09:57:33;;;;;;;13.75;7.68;;;;;;;2.79;91.45;100311.88;5088813;28;20036;-20
2021/12/13 09:59:58;;;;;;;14.02;8.18;;;;;;;3.06;91.88;100315.22;5089133;28;20028;-21
2021/12/13 10:02:31;;;;;;;15.98;9.50;;;;;;;2.91;91.33;100325.59;5089015;28;20093;-22
2021/12/13 10:04:57;;;;;;;15.20;9.25;;;;;;;2.82;91.60;100305.50;5088996;28;20055;-20
2021/12/13 10:07:31;;;;;;;15.77;9.27;;;;;;;3.11;91.12;100307.66;5088907;28;20032;-20
2021/12/13 10:10:24;;;;;;;14.48;7.95;;;;;;;3.05;90.04;100310.94;5089118;28;20061;-20
2021/12/13 10:12:55;;;;;;;19.45;11.10;;;;;;;2.83;91.71;100317.66;5080368;28;20492;-20
2021/12/13 10:15:25;;;;;;;17.73;10.30;;;;;;;2.89;91.80;100300.41;5089143;28;20054;-20
2021/12/13 10:17:53;;;;;;;23.38;10.05;;;;;;;3.09;90.85;100312.25;5088473;28;20028;-20
2021/12/13 10:20:30;;;;;;;14.10;9.38;;;;;;;3.16;90.54;100310.59;5088817;28;20036;-20
2021/12/13 10:22:56;;;;;;;14.48;8.27;;;;;;;3.12;90.56;100306.66;5088588;28;20028;-19
2021/12/13 10:25:23;;;;;;;15.07;8.85;;;;;;;3.12;90.46;100311.94;5088511;28;20039;-20
2021/12/13 10:27:48;;;;;;;14.25;7.78;;;;;;;3.24;90.91;100306.34;5088716;28;20047;-20
2021/12/13 10:30:27;;;;;;;18.13;10.43;;;;;;;3.24;91.57;100308.97;5087548;28;20028;-20
2021/12/13 10:32:53;;;;;;;13.95;8.82;;;;;;;3.24;91.10;100311.63;5089042;28;20040;-21
2021/12/13 10:35:25;;;;;;;17.90;10.13;;;;;;;3.53;90.34;100311.91;5088565;28;20145;-20
2021/12/13 10:37:52;;;;;;;13.38;8.05;;;;;;;3.31;89.60;100289.72;5088568;28;20483;-20
2021/12/13 10:40:24;;;;;;;11.07;6.97;;;;;;;3.33;89.61;100310.59;5088425;28;20032;-20
2021/12/13 10:43:08;;;;;;;13.60;7.93;;;;;;;3.40;89.61;100288.69;5088407;28;20089;-20
2021/12/13 10:45:40;;;;;;;12.32;7.90;;;;;;;3.66;88.29;100313.19;5088664;28;20114;-20
2021/12/13 10:48:07;;;;;;;14.40;9.00;;;;;;;3.59;88.41;100297.22;5088236;28;20099;-20
2021/12/13 10:50:48;;;;;;;13.27;7.95;;;;;;;3.51;89.33;100300.69;5069992;28;20028;-20
2021/12/13 10:53:15;;;;;;;13.45;8.18;;;;;;;3.74;87.88;100300.00;5070273;28;20035;-20
2021/12/13 10:55:47;;;;;;;12.23;7.70;;;;;;;3.75;88.17;100291.94;5088076;28;20039;-21
2021/12/13 10:58:18;;;;;;;15.20;9.20;;;;;;;3.53;88.57;100293.44;5088312;28;20119;-20
2021/12/13 11:00:59;;;;;;;12.07;8.15;;;;;;;3.47;89.05;100267.75;5087971;28;20503;-20
2021/12/13 11:03:25;;;;;;;12.20;7.43;;;;;;;3.59;88.26;100298.06;5088263;28;20032;-20
2021/12/13 11:05:50;;;;;;;12.82;7.05;;;;;;;3.41;89.14;100273.69;5088145;28;20085;-20
2021/12/13 11:08:17;;;;;;;11.52;7.57;;;;;;;3.60;88.25;100283.88;5088014;28;20032;-21
2021/12/13 11:10:57;;;;;;;14.80;8.13;;;;;;;3.85;88.67;100299.66;5087484;28;20028;-20
2021/12/13 11:13:35;;;;;;;13.45;8.77;;;;;;;4.00;87.94;100297.13;5087832;28;20075;-20
2021/12/13 11:16:06;;;;;;;11.60;8.23;;;;;;;3.98;86.78;100281.50;5087803;28;20028;-20
2021/12/13 11:18:32;;;;;;;13.35;9.48;;;;;;;3.72;87.45;100286.16;5088081;28;20058;-20
2021/12/13 11:21:02;;;;;;;13.75;9.07;;;;;;;3.50;88.82;100277.16;5087797;28;20837;-20
2021/12/13 11:23:28;;;;;;;13.85;8.88;;;;;;;3.49;88.91;100278.94;5087618;28;20044;-20
2021/12/13 11:26:00;;;;;;;15.25;9.68;;;;;;;3.35;89.18;100274.34;5087837;28;20453;-20
2021/12/13 11:28:25;;;;;;;14.63;8.50;;;;;;;3.29;89.87;100277.66;5087525;28;20090;-20
2021/12/13 11:30:53;;;;;;;17.83;9.15;;;;;;;3.35;90.21;100269.09;5087537;28;20811;-20
2021/12/13 11:33:37;;;;;;;20.10;11.35;;;;;;;3.32;90.34;100279.97;5087941;28;20044;-19
2021/12/13 11:36:14;;;;;;;12.25;8.50;;;;;;;3.03;90.64;100262.88;5087356;28;20064;-20
2021/12/13 11:39:17;;;;;;;16.55;10.95;;;;;;;3.19;91.31;100275.22;5088082;28;20135;-19
2021/12/13 11:42:04;;;;;;;29.17;14.35;;;;;;;3.38;90.46;100284.59;5089942;28;20510;-20
2021/12/13 11:44:52;;;;;;;25.08;14.55;;;;;;;3.10;90.82;100258.56;5091346;28;20479;-20
2021/12/13 11:47:29;;;;;;;17.42;9.80;;;;;;;3.11;91.21;100283.94;5091733;28;20042;-20
2021/12/13 11:50:32;;;;;;;22.77;14.07;;;;;;;3.22;90.56;100270.41;5091622;28;20389;-20
2021/12/13 11:53:33;;;;;;;37.35;17.52;;;;;;;3.31;90.03;100278.31;5091222;28;20407;-20
2021/12/13 11:56:17;;;;;;;19.25;11.60;;;;;;;3.14;90.67;100277.50;5090420;28;20048;-20
2021/12/13 11:59:20;;;;;;;18.98;12.88;;;;;;;3.18;91.29;100279.63;5091330;28;20113;-20
2021/12/13 12:02:01;;;;;;;18.70;11.13;;;;;;;3.12;91.10;100259.22;5091484;28;20113;-19
2021/12/13 12:04:45;;;;;;;17.13;11.25;;;;;;;3.38;91.05;100274.03;5091010;28;20028;-20
2021/12/13 12:07:13;;;;;;;20.85;12.00;;;;;;;3.29;90.94;100280.28;5091098;28;20088;-21
2021/12/13 12:10:20;;;;;;;26.33;18.05;;;;;;;3.42;90.63;100280.63;5091024;28;20016;-19